Ashby, MA

2:32 PM EDT on October 31, 2014 (GMT -0400)
KMAASHBY2 | Change Station
CLOSE
Current Station
Personal Weather Station
Location: Ashby, MA
Elevation: 695 ft
Nearby Weather Stations

Elev 695 ft 42.69 °N, 71.79 °W | Updated 10 minutes ago

Overcast
Overcast
50.3 °F
Feels Like 50.3 °F
N
0.0
Wind Variable Wind from SE
Gusts 4.0 mph

Today
High -- | Low -- °F
--% Chance of Precip.
Yesterday
High -- | Low -- °F
Precip. -- in
7:19 AM 5:41 PM
First Quarter, 57% visible
Pressure 30.01 in
Visibility 10.0 miles
Clouds Few 3500 ft
Mostly Cloudy 5500 ft
Dew Point 39 °F
Humidity 64%
Rainfall 0.00 in
Snow Depth Not available.
UV 2 out of 12
Pollen .20 out of 12
Air Quality Not available.
Flu Activity Not available.
METAR KFIT 311752Z AUTO 12004KT 10SM FEW035 BKN055 11/01 A3000 RMK AO2 SLP160 T01110011 10111 20061 58017

More Conditions Fewer Conditions

Pressure 30.01 in
Visibility 10.0 miles
Clouds Few 3500 ft
Mostly Cloudy 5500 ft
Dew Point 39 °F
Humidity 64%
Rainfall 0.00 in
Snow Depth Not available.
UV 2 out of 12
Pollen .20 out of 12
Air Quality Not available.
Flu Activity Not available.
METAR KFIT 311752Z AUTO 12004KT 10SM FEW035 BKN055 11/01 A3000 RMK AO2 SLP160 T01110011 10111 20061 58017

More Conditions Fewer Conditions

10-Day Weather Forecast

Almanac

Astronomy

Oct. 31, 2014 Rise Set
Actual Time
Civil Twilight
Nautical Twilight
Astronomical Twilight
Moon
Length of Visible Light
Length of Day
Tomorrow will be .
, % of the Moon is Illuminated

Today's Extremes

State Highs State Lows

Community

WunderPhotos

Upload Photos

1,766,690 photos uploaded!

WunderBlogs® & News

Nearby

Air Quality

  Air Quality AQ Index Pollutant
Not available.

Snow Depth

Station Depth Elevation

Earthquake Activity

City Distance Mag. Time & Date
Minimum magnitude displayed is 2.5.

Coastal Water Temperatures

Place Temperature

Nearby Weather Stations